Time;durP1;ratioP1;P1;durP2;ratioP2;P2;SDS_P1;SDS_P2;PMS_P1;PMS_P2;Temp;Humidity;BMP_temperature;BMP_pressure;BME280_temperature;BME280_humidity;BME280_pressure;Samples;Min_cycle;Max_cycle;Signal;HPM_P1;HPM_P2
2022/10/30 00:05:44;;;;;;;;;9.25;8.25;;;;;20.28;52.98;100948.63;4955245;28;45965;-81
2022/10/30 00:08:11;;;;;;;;;8.00;8.00;;;;;20.28;53.07;100945.97;4955998;28;45631;-82
2022/10/30 00:10:37;;;;;;;;;11.50;9.25;;;;;20.27;53.28;100952.28;4955753;28;45487;-83
2022/10/30 00:13:03;;;;;;;;;10.00;8.00;;;;;20.27;53.18;100950.44;4955682;28;46919;-82
2022/10/30 00:15:28;;;;;;;;;8.50;8.00;;;;;20.25;53.23;100936.47;4955225;28;46128;-82
2022/10/30 00:17:54;;;;;;;;;9.00;8.75;;;;;20.25;53.37;100939.13;4955980;28;45780;-80
2022/10/30 00:20:19;;;;;;;;;10.00;8.00;;;;;20.29;53.34;100944.97;4955955;28;45629;-83
2022/10/30 00:22:44;;;;;;;;;9.00;7.50;;;;;20.29;53.33;100945.81;4955378;28;46841;-84
2022/10/30 00:25:10;;;;;;;;;11.00;9.50;;;;;20.23;53.28;100932.31;4955523;28;46054;-83
2022/10/30 00:27:35;;;;;;;;;8.50;7.75;;;;;20.20;53.00;100930.78;4955647;28;45540;-82
2022/10/30 00:30:00;;;;;;;;;8.50;7.25;;;;;20.28;53.33;100941.47;4955508;28;45641;-81
2022/10/30 00:35:48;;;;;;;;;10.00;9.00;;;;;20.29;53.57;100943.13;4955052;28;45738;-81
2022/10/30 00:38:13;;;;;;;;;11.50;9.00;;;;;20.29;53.59;100943.13;4955231;28;45712;-80
2022/10/30 00:40:38;;;;;;;;;10.50;7.75;;;;;20.27;53.45;100937.13;4954950;28;45794;-80
2022/10/30 00:43:04;;;;;;;;;12.25;11.25;;;;;20.23;53.48;100925.16;4955062;28;45762;-80
2022/10/30 00:45:29;;;;;;;;;15.00;11.50;;;;;20.31;53.54;100921.66;4958095;28;47079;-82
2022/10/30 00:48:00;;;;;;;;;10.25;10.00;;;;;20.19;53.58;100918.47;4958519;28;45565;-81
2022/10/30 00:50:30;;;;;;;;;13.75;10.25;;;;;20.30;53.49;100954.59;4958092;28;45817;-79
2022/10/30 00:53:04;;;;;;;;;12.50;11.50;;;;;20.29;53.63;100948.47;4958034;28;46523;-82
2022/10/30 00:55:33;;;;;;;;;12.00;11.00;;;;;20.28;53.69;100948.63;4957986;28;46419;-82
2022/10/30 00:58:02;;;;;;;;;11.00;10.75;;;;;20.27;53.65;100950.44;4957982;28;45737;-81
2022/10/30 01:00:29;;;;;;;;;12.75;11.00;;;;;20.20;53.69;100943.25;4957893;28;45639;-81
2022/10/30 01:06:16;;;;;;;;;9.50;8.75;;;;;20.25;53.88;100959.56;4958007;28;45906;-80
2022/10/30 01:08:43;;;;;;;;;11.00;10.00;;;;;20.23;53.59;100957.09;4958570;28;45610;-81
2022/10/30 01:11:08;;;;;;;;;10.50;8.75;;;;;20.20;53.47;100954.75;4958651;28;45656;-79
2022/10/30 01:13:35;;;;;;;;;11.00;10.00;;;;;20.20;53.65;100952.09;4958525;28;45686;-80
2022/10/30 01:16:19;;;;;;;;;10.50;9.75;;;;;20.19;53.67;100960.25;4958130;28;46308;-81
2022/10/30 01:18:44;;;;;;;;;10.00;9.00;;;;;20.15;53.75;100954.41;4957743;28;45665;-81
2022/10/30 01:21:19;;;;;;;;;10.00;9.33;;;;;20.06;53.73;100953.56;4957846;28;45705;-79
2022/10/30 01:24:14;;;;;;;;;9.25;8.75;;;;;20.02;53.75;100956.72;4958144;28;47466;-78
2022/10/30 01:26:40;;;;;;;;;10.50;9.00;;;;;20.03;54.14;100961.00;4958382;28;45969;-78
2022/10/30 01:29:11;;;;;;;;;10.50;10.00;;;;;20.00;54.11;100964.00;4958618;28;45596;-81
2022/10/30 01:32:02;;;;;;;;;9.00;9.00;;;;;19.98;54.07;100965.97;4958358;28;45485;-82
2022/10/30 01:34:45;;;;;;;;;11.50;10.75;;;;;19.95;53.91;100967.16;4957778;28;46643;-80
2022/10/30 01:37:26;;;;;;;;;12.50;10.00;;;;;19.94;54.30;100967.31;4957892;28;46547;-80
2022/10/30 01:39:52;;;;;;;;;12.25;10.25;;;;;19.90;54.20;100964.13;4957748;28;45771;-82
2022/10/30 01:42:42;;;;;;;;;15.50;12.00;;;;;19.88;54.06;100950.16;4957615;28;45611;-82
2022/10/30 01:45:14;;;;;;;;;13.25;12.00;;;;;19.86;54.36;100957.47;4957808;28;45699;-82
2022/10/30 01:48:04;;;;;;;;;10.25;9.00;;;;;19.82;54.19;100953.47;4957642;28;45985;-80
2022/10/30 01:50:44;;;;;;;;;11.25;9.75;;;;;19.72;54.47;100942.13;4957502;28;45551;-81
2022/10/30 01:53:22;;;;;;;;;9.50;9.00;;;;;19.76;54.39;100947.97;4957574;28;45802;-82
2022/10/30 01:55:59;;;;;;;;;11.50;10.25;;;;;19.74;54.35;100953.44;4956539;28;46609;-81
2022/10/30 01:59:29;;;;;;;;;12.00;9.50;;;;;19.72;54.42;100950.09;4957659;28;46014;-82
2022/10/30 02:05:26;;;;;;;;;11.00;10.50;;;;;19.68;54.59;100925.66;4879883;28;45574;-82
2022/10/30 02:07:52;;;;;;;;;11.00;10.00;;;;;19.68;54.54;100924.81;4957407;28;45552;-82
2022/10/30 02:10:17;;;;;;;;;12.50;10.00;;;;;19.68;54.47;100930.97;4957197;28;45919;-83
2022/10/30 02:12:43;;;;;;;;;11.25;9.75;;;;;19.68;54.58;100924.81;4957112;28;45691;-83
2022/10/30 02:15:10;;;;;;;;;12.75;10.00;;;;;19.64;54.72;100924.31;4957268;28;45689;-80
2022/10/30 02:20:57;;;;;;;;;10.00;10.00;;;;;19.64;54.69;100919.00;4957142;28;45950;-78
2022/10/30 02:23:23;;;;;;;;;10.00;10.00;;;;;19.65;54.71;100919.81;4958057;28;45671;-81
2022/10/30 02:25:48;;;;;;;;;11.75;9.50;;;;;19.64;54.77;100924.31;4957159;28;45670;-81
2022/10/30 02:28:13;;;;;;;;;11.50;9.75;;;;;19.63;54.94;100927.13;4957032;28;45691;-81
2022/10/30 02:30:42;;;;;;;;;10.75;10.00;;;;;19.63;54.77;100925.31;4956814;28;45649;-78
2022/10/30 02:36:29;;;;;;;;;12.25;10.00;;;;;19.62;54.78;100918.31;4956735;28;45657;-82
2022/10/30 02:38:55;;;;;;;;;12.00;11.00;;;;;19.62;55.11;100917.50;4956865;28;45570;-82
2022/10/30 02:41:22;;;;;;;;;9.50;9.00;;;;;19.58;54.67;100916.16;4956725;28;46331;-78
2022/10/30 02:43:47;;;;;;;;;12.25;10.50;;;;;19.55;54.93;100914.63;4971397;28;45752;-82
2022/10/30 02:46:13;;;;;;;;;13.00;10.00;;;;;19.54;55.11;100909.50;4956838;28;45526;-79
2022/10/30 02:52:13;;;;;;;;;10.75;9.75;;;;;19.52;54.84;100900.84;4955074;28;46103;-82
2022/10/30 02:54:39;;;;;;;;;9.50;8.75;;;;;19.57;55.22;100909.16;4956597;28;45553;-80
2022/10/30 02:57:04;;;;;;;;;10.25;9.25;;;;;19.56;54.77;100910.97;4956741;28;45488;-83
2022/10/30 02:59:29;;;;;;;;;11.00;10.00;;;;;19.55;55.00;100908.47;4956610;28;45563;-81
2022/10/30 03:01:55;;;;;;;;;10.00;10.00;;;;;19.54;55.09;100907.63;4964433;28;45562;-79
2022/10/30 03:04:20;;;;;;;;;10.50;9.25;;;;;19.54;54.85;100904.19;4969719;28;45331;-79
2022/10/30 03:06:45;;;;;;;;;10.00;9.00;;;;;19.50;54.97;100900.16;4968449;28;45660;-80
2022/10/30 03:09:11;;;;;;;;;12.25;10.25;;;;;19.53;55.00;100905.16;4967401;28;45480;-78
2022/10/30 03:11:36;;;;;;;;;6.50;5.00;;;;;19.49;55.40;100904.63;4968222;28;46360;-76
2022/10/30 03:14:01;;;;;;;;;8.75;8.00;;;;;19.51;55.25;100909.78;4964803;28;45675;-80
2022/10/30 03:16:28;;;;;;;;;10.00;8.00;;;;;19.51;54.97;100907.97;4958537;28;45810;-82
2022/10/30 03:22:15;;;;;;;;;10.50;8.00;;;;;19.48;55.04;100896.84;4955891;28;45790;-82
2022/10/30 03:24:40;;;;;;;;;11.50;10.00;;;;;19.47;54.97;100893.34;4956396;28;45618;-83
2022/10/30 03:27:06;;;;;;;;;8.25;8.00;;;;;19.49;55.17;100901.13;4956283;28;45549;-81
2022/10/30 03:29:31;;;;;;;;;12.75;10.00;;;;;19.49;55.25;100898.47;4955697;28;46680;-83
2022/10/30 03:31:56;;;;;;;;;11.25;9.75;;;;;19.46;55.06;100889.00;4955808;28;47564;-78
2022/10/30 03:34:21;;;;;;;;;10.50;10.50;;;;;19.45;55.41;100886.50;4956351;28;45585;-82
2022/10/30 03:36:47;;;;;;;;;10.25;8.00;;;;;19.46;55.31;100891.66;4956457;28;45744;-77
2022/10/30 03:39:12;;;;;;;;;12.00;9.00;;;;;19.46;55.17;100886.34;4956330;28;46541;-78
2022/10/30 03:41:38;;;;;;;;;12.00;9.25;;;;;19.45;55.68;100874.06;4955846;28;46115;-77
2022/10/30 03:44:03;;;;;;;;;10.25;9.25;;;;;19.38;55.05;100869.53;4955509;28;45770;-79
2022/10/30 03:46:30;;;;;;;;;13.75;10.25;;;;;19.44;55.39;100877.66;4955731;28;45658;-76
2022/10/30 03:52:17;;;;;;;;;11.50;9.00;;;;;19.34;55.56;100868.16;4954590;28;45734;-76
2022/10/30 03:54:42;;;;;;;;;10.00;9.00;;;;;19.34;55.71;100869.00;4955222;28;45675;-80
2022/10/30 03:57:07;;;;;;;;;11.25;11.25;;;;;19.40;55.87;100880.81;4938130;28;45884;-80
2022/10/30 03:59:33;;;;;;;;;10.00;10.00;;;;;19.39;55.72;100879.97;4955119;28;46223;-79
2022/10/30 04:01:58;;;;;;;;;11.25;10.50;;;;;19.39;55.44;100876.47;4955180;28;47395;-82
2022/10/30 04:07:46;;;;;;;;;11.00;9.50;;;;;19.32;55.79;100863.03;4955894;28;45549;-82
2022/10/30 04:10:12;;;;;;;;;12.75;10.25;;;;;19.37;55.37;100874.00;4955499;28;45588;-79
2022/10/30 04:12:38;;;;;;;;;11.75;10.00;;;;;19.33;55.59;100864.66;4955185;28;46086;-81
2022/10/30 04:15:05;;;;;;;;;14.25;12.00;;;;;19.29;55.76;100860.66;4955181;28;45717;-78
2022/10/30 04:17:31;;;;;;;;;14.50;12.00;;;;;19.28;55.78;100870.47;4955520;28;45864;-78
2022/10/30 04:19:56;;;;;;;;;13.50;12.25;;;;;19.32;55.79;100883.44;4961313;28;46850;-78
2022/10/30 04:22:22;;;;;;;;;13.75;12.25;;;;;19.31;55.67;100871.13;4961247;28;46891;-77
2022/10/30 04:24:49;;;;;;;;;13.00;12.00;;;;;19.18;55.69;100848.50;4961636;28;45505;-78
2022/10/30 04:27:14;;;;;;;;;14.25;12.00;;;;;19.24;56.02;100861.16;4961782;28;45747;-79
2022/10/30 04:29:43;;;;;;;;;15.25;14.00;;;;;19.16;56.31;100849.66;4961557;28;46773;-78
2022/10/30 04:32:09;;;;;;;;;9.00;7.00;;;;;19.19;56.09;100854.63;4961404;28;45648;-79
2022/10/30 04:38:01;;;;;;;;;13.00;11.25;;;;;19.11;56.13;100850.09;4961889;28;45512;-81
2022/10/30 04:40:30;;;;;;;;;13.25;12.50;;;;;19.08;56.08;100858.41;4961725;28;45625;-81
2022/10/30 04:42:56;;;;;;;;;13.50;13.00;;;;;19.04;56.50;100853.56;4976537;28;46345;-79
2022/10/30 04:45:22;;;;;;;;;13.75;12.75;;;;;19.00;56.22;100853.03;4961241;28;45503;-80
2022/10/30 04:47:47;;;;;;;;;15.00;13.50;;;;;19.04;56.68;100867.69;4961640;28;45915;-81
2022/10/30 04:50:13;;;;;;;;;13.25;11.50;;;;;19.04;56.32;100850.91;4976418;28;46778;-82
2022/10/30 04:52:39;;;;;;;;;14.00;13.00;;;;;19.02;56.53;100864.34;4960880;28;45924;-79
2022/10/30 04:55:06;;;;;;;;;12.50;12.25;;;;;19.02;56.33;100858.19;4959965;28;46000;-78
2022/10/30 04:57:32;;;;;;;;;13.50;11.00;;;;;18.95;56.63;100850.00;4961324;28;45603;-80
2022/10/30 04:59:57;;;;;;;;;16.50;13.25;;;;;19.00;56.96;100862.84;4960866;28;47086;-81
2022/10/30 05:02:23;;;;;;;;;14.00;13.00;;;;;18.93;56.93;100849.34;4959454;28;46970;-82
2022/10/30 05:08:10;;;;;;;;;19.00;13.50;;;;;18.92;56.79;100857.47;4960893;28;45594;-79
2022/10/30 05:10:39;;;;;;;;;14.50;11.75;;;;;18.89;56.73;100860.44;4960701;28;47285;-81
2022/10/30 05:13:04;;;;;;;;;14.25;14.00;;;;;18.90;57.21;100857.63;4961769;28;46689;-80
2022/10/30 05:15:30;;;;;;;;;15.75;12.25;;;;;18.87;57.07;100857.94;4961755;28;45529;-80
2022/10/30 05:17:55;;;;;;;;;13.75;13.00;;;;;18.82;56.74;100853.09;4961822;28;45920;-83
2022/10/30 05:20:20;;;;;;;;;14.50;13.00;;;;;18.80;56.95;100847.13;4961057;28;45550;-83
2022/10/30 05:22:53;;;;;;;;;14.00;13.00;;;;;18.77;57.49;100854.56;4960889;28;45677;-82
2022/10/30 05:25:19;;;;;;;;;14.75;13.25;;;;;18.74;57.10;100836.28;4962314;28;45565;-82
2022/10/30 05:27:44;;;;;;;;;15.75;15.00;;;;;18.79;57.16;100845.44;4959578;28;45868;-81
2022/10/30 05:30:10;;;;;;;;;15.25;15.00;;;;;18.78;57.52;100837.66;4959658;28;46446;-79
2022/10/30 05:32:35;;;;;;;;;14.00;12.00;;;;;18.74;57.43;100844.25;4958634;28;45617;-83
2022/10/30 05:38:22;;;;;;;;;13.25;11.75;;;;;18.73;57.45;100834.63;4959661;28;45506;-83
2022/10/30 05:40:48;;;;;;;;;15.00;12.75;;;;;18.67;57.71;100835.25;4959111;28;46407;-82
2022/10/30 05:43:13;;;;;;;;;17.75;13.50;;;;;18.68;57.18;100842.19;4957990;28;46277;-82
2022/10/30 05:45:38;;;;;;;;;14.50;12.25;;;;;18.63;57.87;100852.47;4957619;28;45517;-81
2022/10/30 05:48:05;;;;;;;;;13.25;11.00;;;;;18.59;57.33;100841.31;4957763;28;45595;-82
2022/10/30 05:50:31;;;;;;;;;14.50;13.00;;;;;18.58;57.58;100844.97;4957054;28;46244;-85
2022/10/30 05:53:00;;;;;;;;;12.50;11.00;;;;;18.63;57.23;100847.16;4958142;28;46099;-82
2022/10/30 05:55:26;;;;;;;;;13.25;12.00;;;;;18.62;57.90;100845.50;4957255;28;45615;-81
2022/10/30 05:57:58;;;;;;;;;15.25;13.50;;;;;18.57;57.91;100835.34;4958325;28;45710;-84
2022/10/30 06:00:25;;;;;;;;;13.00;11.50;;;;;18.59;57.85;100829.88;4957137;28;45675;-83
2022/10/30 06:02:50;;;;;;;;;14.25;11.00;;;;;18.57;57.85;100831.88;4956985;28;45980;-83
2022/10/30 06:08:37;;;;;;;;;16.00;12.00;;;;;18.50;58.16;100841.41;4956881;28;45819;-79
2022/10/30 06:11:03;;;;;;;;;13.50;11.25;;;;;18.49;57.90;100835.25;4956700;28;46311;-81
2022/10/30 06:13:28;;;;;;;;;12.00;11.25;;;;;18.46;57.96;100836.38;4956714;28;45773;-83
2022/10/30 06:15:55;;;;;;;;;13.00;11.50;;;;;18.41;57.95;100828.06;4957143;28;45730;-83
2022/10/30 06:18:21;;;;;;;;;14.00;11.75;;;;;18.45;57.89;100842.69;4957119;28;45699;-82
2022/10/30 06:20:46;;;;;;;;;11.00;11.00;;;;;18.47;58.16;100842.53;4956637;28;45753;-81
2022/10/30 06:23:11;;;;;;;;;11.75;10.25;;;;;18.45;57.70;100840.03;4956776;28;46190;-83
2022/10/30 06:25:37;;;;;;;;;14.00;12.00;;;;;18.44;57.82;100848.16;4956847;28;45702;-83
2022/10/30 06:28:02;;;;;;;;;13.25;12.00;;;;;18.41;57.77;100838.66;4956435;28;45575;-83
2022/10/30 06:30:28;;;;;;;;;13.75;11.00;;;;;18.36;58.43;100838.28;4956438;28;45594;-84
2022/10/30 06:33:01;;;;;;;;;12.25;12.00;;;;;18.35;58.19;100839.28;4956737;28;46186;-80
2022/10/30 06:38:48;;;;;;;;;16.50;15.75;;;;;18.37;58.28;100858.53;4956719;28;45692;-80
2022/10/30 06:41:13;;;;;;;;;13.75;12.00;;;;;18.34;58.54;100848.25;4955253;28;47686;-83
2022/10/30 06:43:39;;;;;;;;;10.50;10.00;;;;;18.36;58.59;100859.50;4956318;28;46248;-83
2022/10/30 06:46:04;;;;;;;;;11.50;10.50;;;;;18.23;57.90;100837.03;4954963;28;46066;-83
2022/10/30 06:48:30;;;;;;;;;19.25;17.50;;;;;18.36;58.20;100867.47;4956243;28;45898;-82
2022/10/30 06:54:31;;;;;;;;;12.75;12.00;;;;;18.34;58.59;100865.97;4954973;28;45788;-84
2022/10/30 06:56:57;;;;;;;;;15.75;11.50;;;;;18.29;58.41;100855.84;4957275;28;45693;-84
2022/10/30 06:59:23;;;;;;;;;16.00;15.00;;;;;18.18;58.29;100834.84;4956664;28;45888;-82
2022/10/30 07:01:48;;;;;;;;;14.25;12.25;;;;;18.33;58.21;100865.16;4938596;28;46545;-80
2022/10/30 07:04:14;;;;;;;;;13.00;12.00;;;;;18.26;58.73;100860.59;4956665;28;45527;-84
2022/10/30 07:06:39;;;;;;;;;14.75;14.00;;;;;18.23;58.84;100843.19;4956675;28;45987;-85
2022/10/30 07:09:04;;;;;;;;;13.50;12.75;;;;;18.32;58.94;100854.66;4956688;28;45487;-81
2022/10/30 07:11:30;;;;;;;;;18.75;15.75;;;;;18.26;58.45;100845.50;4957027;28;46500;-85
2022/10/30 07:13:55;;;;;;;;;20.00;16.00;;;;;18.29;58.50;100852.34;4959709;28;45681;-83
2022/10/30 07:16:20;;;;;;;;;17.00;14.75;;;;;18.27;58.59;100857.78;4958678;28;45478;-84
2022/10/30 07:18:46;;;;;;;;;16.00;13.75;;;;;18.26;59.01;100858.78;4957078;28;45670;-84
2022/10/30 07:24:33;;;;;;;;;12.00;11.00;;;;;18.22;58.57;100835.34;4955671;28;45860;-82
2022/10/30 07:26:58;;;;;;;;;11.50;11.00;;;;;18.19;58.87;100839.13;4955783;28;45653;-79
2022/10/30 07:29:23;;;;;;;;;15.75;15.75;;;;;18.25;58.76;100835.03;4938407;28;45570;-79
2022/10/30 07:31:49;;;;;;;;;22.25;15.50;;;;;18.18;59.29;100834.84;4955582;28;47236;-82
2022/10/30 07:34:15;;;;;;;;;13.50;13.50;;;;;18.18;59.31;100847.28;4955384;28;46130;-78
2022/10/30 07:36:40;;;;;;;;;11.75;11.00;;;;;18.20;59.29;100855.88;4955489;28;45670;-79
2022/10/30 07:39:06;;;;;;;;;14.50;11.75;;;;;18.21;58.82;100860.22;4955537;28;45487;-79
2022/10/30 07:41:32;;;;;;;;;13.75;12.25;;;;;18.24;58.91;100865.22;4955284;28;46264;-79
2022/10/30 07:43:57;;;;;;;;;13.00;12.00;;;;;18.25;58.68;100858.91;4955389;28;45832;-77
2022/10/30 07:46:22;;;;;;;;;14.50;13.00;;;;;18.27;58.93;100860.44;4955722;28;45788;-78
2022/10/30 07:48:48;;;;;;;;;14.25;13.00;;;;;18.23;58.62;100843.19;4955547;28;45606;-80
2022/10/30 07:54:35;;;;;;;;;15.50;13.50;;;;;18.21;59.05;100841.66;4953901;28;45669;-76
2022/10/30 07:57:00;;;;;;;;;15.75;13.75;;;;;18.30;59.16;100859.31;4958700;28;45535;-74
2022/10/30 07:59:25;;;;;;;;;14.50;14.00;;;;;18.31;58.99;100860.97;4958575;28;45444;-80
2022/10/30 08:01:51;;;;;;;;;15.25;13.00;;;;;18.31;58.85;100863.63;4941156;28;46344;-77
2022/10/30 08:04:16;;;;;;;;;17.50;16.00;;;;;18.28;59.22;100862.13;4955750;28;45583;-80
2022/10/30 08:10:05;;;;;;;;;17.75;13.25;;;;;18.34;58.43;100879.25;4955503;28;45554;-78
2022/10/30 08:12:32;;;;;;;;;12.75;12.00;;;;;18.34;58.76;100890.69;4955081;28;45753;-79
2022/10/30 08:14:58;;;;;;;;;10.00;9.25;;;;;18.30;58.64;100875.22;4954856;28;46949;-81
2022/10/30 08:17:23;;;;;;;;;13.25;11.75;;;;;18.30;58.51;100889.31;4955294;28;45732;-83
2022/10/30 08:19:48;;;;;;;;;11.75;11.25;;;;;18.36;58.58;100906.44;4955305;28;45769;-84
2022/10/30 08:22:14;;;;;;;;;15.00;13.00;;;;;18.35;58.61;100910.91;4955140;28;45735;-83
2022/10/30 08:24:39;;;;;;;;;12.00;11.00;;;;;18.39;58.60;100904.34;4955138;28;46141;-83
2022/10/30 08:27:05;;;;;;;;;14.75;12.50;;;;;18.44;58.43;100925.09;4955623;28;45682;-80
2022/10/30 08:29:31;;;;;;;;;14.50;11.50;;;;;18.44;58.54;100919.78;4955323;28;45594;-79
2022/10/30 08:31:56;;;;;;;;;12.00;11.00;;;;;18.38;58.23;100917.75;4954981;28;45554;-80
2022/10/30 08:34:22;;;;;;;;;12.25;11.25;;;;;18.45;58.00;100929.44;4954948;28;45746;-80
2022/10/30 08:40:10;;;;;;;;;11.00;9.75;;;;;18.46;58.41;100929.25;4954879;28;45599;-84
2022/10/30 08:42:35;;;;;;;;;14.50;11.75;;;;;18.45;58.36;100909.03;4954680;28;46331;-84
2022/10/30 08:45:01;;;;;;;;;13.00;13.00;;;;;18.49;57.96;100914.03;4954855;28;45674;-84
2022/10/30 08:47:27;;;;;;;;;6.00;4.50;;;;;18.46;57.93;100921.28;4954753;28;45811;-83
2022/10/30 08:49:52;;;;;;;;;13.50;11.75;;;;;18.54;57.88;100935.63;4955038;28;45574;-83
2022/10/30 08:52:17;;;;;;;;;10.75;9.75;;;;;18.48;58.25;100915.84;4955108;28;46352;-83
2022/10/30 08:54:43;;;;;;;;;13.50;12.50;;;;;18.55;58.27;100921.41;4938631;28;47270;-84
2022/10/30 08:57:08;;;;;;;;;15.25;13.50;;;;;18.52;57.82;100897.78;4955257;28;45459;-84
2022/10/30 08:59:33;;;;;;;;;11.25;10.25;;;;;18.60;57.60;100909.34;4955977;28;45566;-83
2022/10/30 09:01:59;;;;;;;;;10.25;10.25;;;;;18.56;57.82;100905.34;4955082;28;46349;-84
2022/10/30 09:04:25;;;;;;;;;13.00;12.25;;;;;18.61;57.88;100920.81;4956159;28;45991;-78
2022/10/30 09:10:13;;;;;;;;;16.50;15.25;;;;;18.66;57.53;100924.66;4958092;28;45665;-83
2022/10/30 09:12:38;;;;;;;;;12.75;11.75;;;;;18.64;57.84;100923.97;4957901;28;46403;-81
2022/10/30 09:15:04;;;;;;;;;11.75;10.50;;;;;18.69;57.43;100928.81;4958544;28;46969;-82
2022/10/30 09:17:30;;;;;;;;;11.75;11.75;;;;;18.69;57.40;100928.81;4958381;28;45515;-82
2022/10/30 09:19:55;;;;;;;;;14.50;11.00;;;;;18.75;57.39;100937.00;4960652;28;45504;-80
2022/10/30 09:25:42;;;;;;;;;11.75;10.75;;;;;18.75;57.54;100934.34;4958328;28;45726;-82
2022/10/30 09:28:07;;;;;;;;;12.00;10.25;;;;;18.78;57.26;100947.34;4957849;28;45674;-83
2022/10/30 09:30:32;;;;;;;;;12.25;11.00;;;;;18.79;57.27;100948.97;4958024;28;45579;-83
2022/10/30 09:33:00;;;;;;;;;12.00;11.25;;;;;18.81;57.43;100946.19;4957464;28;47104;-79
2022/10/30 09:35:27;;;;;;;;;15.75;11.50;;;;;18.79;57.68;100938.34;4958306;28;47030;-81
2022/10/30 09:37:54;;;;;;;;;17.25;16.25;;;;;18.78;57.32;100941.19;4957913;28;45661;-81
2022/10/30 09:40:28;;;;;;;;;13.75;13.00;;;;;18.88;57.19;100944.59;4957876;28;45760;-82
2022/10/30 09:43:02;;;;;;;;;14.00;12.00;;;;;18.89;57.11;100943.59;4957642;28;45705;-83
2022/10/30 09:45:36;;;;;;;;;13.25;10.00;;;;;18.96;57.20;100947.28;4957669;28;47119;-82
2022/10/30 09:48:26;;;;;;;;;13.50;10.00;;;;;19.03;56.69;100958.13;4957441;28;45713;-84
2022/10/30 09:51:08;;;;;;;;;9.25;8.00;;;;;19.07;56.42;100962.13;4957296;28;45625;-81
2022/10/30 09:53:49;;;;;;;;;10.25;9.50;;;;;19.06;56.33;100963.97;4957336;28;45614;-82
2022/10/30 09:56:34;;;;;;;;;10.25;9.00;;;;;19.09;56.32;100944.22;4957710;28;45984;-83
2022/10/30 09:59:24;;;;;;;;;10.25;7.25;;;;;19.12;55.80;100958.03;4957990;28;45746;-81
2022/10/30 10:02:08;;;;;;;;;10.00;7.75;;;;;19.16;55.79;100946.09;4958754;28;45557;-80
2022/10/30 10:04:40;;;;;;;;;7.00;6.75;;;;;19.17;55.46;100952.25;4956736;28;46681;-83
2022/10/30 10:07:46;;;;;;;;;11.25;8.50;;;;;19.15;55.33;100947.09;4957136;28;46109;-82
2022/10/30 10:10:36;;;;;;;;;6.25;6.00;;;;;19.28;55.01;100968.75;4936717;28;45773;-80
2022/10/30 10:13:02;;;;;;;;;10.75;9.00;;;;;19.21;54.50;100954.47;4936501;28;45784;-79
2022/10/30 10:15:52;;;;;;;;;8.75;8.25;;;;;19.31;55.14;100964.13;4935479;28;45718;-80
2022/10/30 10:18:24;;;;;;;;;8.25;6.25;;;;;19.32;55.00;100957.84;4935655;28;46109;-80
2022/10/30 10:24:18;;;;;;;;;9.00;8.00;;;;;19.42;54.74;100956.75;4935405;28;45629;-80
2022/10/30 10:26:56;;;;;;;;;7.00;7.00;;;;;19.43;54.84;100946.94;4935550;28;46495;-81
2022/10/30 10:29:44;;;;;;;;;9.00;8.00;;;;;19.48;54.69;100958.81;4934945;28;47226;-82
2022/10/30 10:32:40;;;;;;;;;10.00;8.50;;;;;19.49;54.60;100947.16;4934912;28;45555;-80
2022/10/30 10:35:27;;;;;;;;;11.00;9.00;;;;;19.53;54.63;100948.53;4935323;28;45949;-82
2022/10/30 10:41:20;;;;;;;;;10.00;9.00;;;;;19.58;54.36;100948.03;4948440;28;45825;-81
2022/10/30 10:44:12;;;;;;;;;9.25;8.50;;;;;19.57;54.34;100970.28;4971696;28;45919;-82
2022/10/30 10:47:16;;;;;;;;;8.00;8.00;;;;;19.53;54.48;100977.75;4956772;28;45616;-79
2022/10/30 10:50:22;;;;;;;;;6.75;6.25;;;;;19.50;54.56;100983.38;4938330;28;46605;-78
2022/10/30 10:56:11;;;;;;;;;9.50;7.75;;;;;19.43;54.49;100995.63;4955381;28;45770;-79
2022/10/30 10:58:59;;;;;;;;;9.50;8.75;;;;;19.50;54.60;101015.28;4956401;28;45762;-80
2022/10/30 11:02:07;;;;;;;;;10.00;10.00;;;;;19.52;54.73;101000.00;4956075;28;45660;-82
2022/10/30 11:04:44;;;;;;;;;9.25;8.00;;;;;19.41;54.84;100972.84;4915414;28;45866;-82
2022/10/30 11:07:47;;;;;;;;;8.00;8.00;;;;;19.57;54.50;101004.84;4915502;28;45728;-83
2022/10/30 11:10:16;;;;;;;;;8.50;8.50;;;;;19.59;55.07;101016.19;4917603;28;45809;-79
2022/10/30 11:12:42;;;;;;;;;8.25;6.25;;;;;19.59;55.09;101017.00;4919914;28;46580;-83
2022/10/30 11:16:04;;;;;;;;;9.25;8.75;;;;;19.61;55.12;101024.81;4916150;28;46406;-82
2022/10/30 11:18:30;;;;;;;;;10.25;8.50;;;;;19.56;55.37;101033.25;4896436;29;45647;-78
2022/10/30 11:24:34;;;;;;;;;13.25;11.00;;;;;19.56;55.75;101012.00;4896678;29;45659;-81
2022/10/30 11:27:27;;;;;;;;;12.25;11.00;;;;;19.52;56.04;100989.38;4896451;29;45980;-79
2022/10/30 11:29:58;;;;;;;;;10.75;10.75;;;;;19.54;56.37;101018.47;4894564;29;45803;-81
2022/10/30 11:32:30;;;;;;;;;13.25;11.50;;;;;19.45;56.20;101020.22;4896686;29;45668;-82
2022/10/30 11:35:16;;;;;;;;;12.00;10.00;;;;;19.42;56.66;101028.50;4895995;29;46250;-81
2022/10/30 11:41:03;;;;;;;;;11.25;10.00;;;;;19.31;56.73;101028.75;4906281;28;45944;-80
2022/10/30 11:43:28;;;;;;;;;13.00;10.75;;;;;19.39;56.87;101030.59;4934496;28;45650;-81
2022/10/30 11:45:54;;;;;;;;;12.25;10.75;;;;;19.39;57.23;101020.81;4934248;28;46257;-81
2022/10/30 11:48:26;;;;;;;;;13.75;11.00;;;;;19.43;56.85;101038.13;4939715;28;46313;-81
2022/10/30 11:50:57;;;;;;;;;12.75;11.00;;;;;19.44;56.75;101025.66;4955833;28;45682;-79
2022/10/30 11:56:49;;;;;;;;;9.75;9.00;;;;;19.50;56.94;101065.78;4953845;28;46178;-82
2022/10/30 11:59:21;;;;;;;;;12.00;10.75;;;;;19.48;57.36;101067.78;4955889;28;46384;-82
2022/10/30 12:02:02;;;;;;;;;12.25;10.75;;;;;19.45;57.51;101077.84;4955678;28;45702;-82
2022/10/30 12:04:31;;;;;;;;;9.75;8.25;;;;;19.52;57.47;101078.91;4955536;28;45908;-84
2022/10/30 12:07:09;;;;;;;;;11.25;11.25;;;;;19.50;57.77;101079.06;4955401;28;46375;-81
2022/10/30 12:09:46;;;;;;;;;13.50;11.25;;;;;19.43;57.72;101090.47;4955687;28;46983;-85
2022/10/30 12:12:21;;;;;;;;;10.75;10.25;;;;;19.34;57.92;101094.00;4954237;28;45700;-83
2022/10/30 12:14:47;;;;;;;;;10.75;10.50;;;;;19.26;58.03;101070.88;4955641;28;45832;-82
2022/10/30 12:17:17;;;;;;;;;13.75;12.00;;;;;19.31;58.35;101078.41;4955069;28;47398;-84
2022/10/30 12:20:03;;;;;;;;;11.00;9.00;;;;;19.39;58.61;101089.06;4955372;28;46037;-85
2022/10/30 12:22:33;;;;;;;;;13.25;10.75;;;;;19.39;58.37;101086.41;4955348;28;45609;-83
2022/10/30 12:25:06;;;;;;;;;10.25;9.00;;;;;19.40;58.14;101090.75;4955806;28;45744;-83
2022/10/30 12:27:37;;;;;;;;;12.50;10.25;;;;;19.38;58.08;101095.41;4955384;28;46593;-84
2022/10/30 12:30:05;;;;;;;;;12.50;9.25;;;;;19.26;58.36;101068.22;4955833;28;45976;-82
2022/10/30 12:32:52;;;;;;;;;8.00;7.50;;;;;19.30;58.60;101090.84;4956385;28;45653;-85
2022/10/30 12:35:18;;;;;;;;;11.00;10.25;;;;;19.29;58.44;101097.13;4957802;28;45814;-84
2022/10/30 12:37:43;;;;;;;;;10.00;9.00;;;;;19.27;58.07;101105.25;4957767;28;47534;-84
2022/10/30 12:40:21;;;;;;;;;9.75;9.75;;;;;19.24;58.50;101094.09;4960344;28;46069;-85
2022/10/30 12:43:15;;;;;;;;;11.25;9.75;;;;;19.28;58.39;101085.66;4962920;28;45754;-84
2022/10/30 12:45:43;;;;;;;;;10.75;10.50;;;;;19.32;58.63;101093.34;4977172;28;45670;-84
2022/10/30 12:48:32;;;;;;;;;10.00;8.00;;;;;19.35;58.13;101101.00;4962580;28;46528;-83
2022/10/30 12:51:45;;;;;;;;;10.00;8.50;;;;;19.31;58.27;101107.63;4961848;28;47075;-81
2022/10/30 12:54:24;;;;;;;;;8.00;7.00;;;;;19.31;58.34;101123.56;4884483;29;45553;-83
2022/10/30 12:57:18;;;;;;;;;8.25;8.25;;;;;19.23;58.46;101111.03;4892381;29;45806;-79
2022/10/30 13:00:14;;;;;;;;;6.75;6.75;;;;;19.23;58.52;101103.06;4939308;28;45572;-83
2022/10/30 13:02:52;;;;;;;;;4.00;3.25;;;;;19.24;58.44;101116.19;4948182;28;46203;-83
2022/10/30 13:05:31;;;;;;;;;7.00;6.00;;;;;19.24;58.40;101102.91;4948068;28;45527;-81